sensor_id;sensor_type;location;lat;lon;timestamp;temperature;humidity
3005;DHT22;1512;51.486;6.610;2023-05-23T00:02:12;16.50;1.00
3005;DHT22;1512;51.486;6.610;2023-05-23T00:06:22;16.40;1.00
3005;DHT22;1512;51.486;6.610;2023-05-23T00:10:31;16.20;1.00
3005;DHT22;1512;51.486;6.610;2023-05-23T00:14:40;16.20;1.00
3005;DHT22;1512;51.486;6.610;2023-05-23T00:18:48;16.30;1.00
3005;DHT22;1512;51.486;6.610;2023-05-23T00:22:58;16.20;1.00
3005;DHT22;1512;51.486;6.610;2023-05-23T00:27:07;16.30;1.00
3005;DHT22;1512;51.486;6.610;2023-05-23T00:31:16;16.40;1.00
3005;DHT22;1512;51.486;6.610;2023-05-23T00:35:24;16.40;1.00
3005;DHT22;1512;51.486;6.610;2023-05-23T00:39:33;16.30;1.00
3005;DHT22;1512;51.486;6.610;2023-05-23T00:43:42;16.30;1.00
3005;DHT22;1512;51.486;6.610;2023-05-23T00:47:51;16.10;1.00
3005;DHT22;1512;51.486;6.610;2023-05-23T00:52:01;16.10;1.00
3005;DHT22;1512;51.486;6.610;2023-05-23T00:56:12;16.10;1.00
3005;DHT22;1512;51.486;6.610;2023-05-23T01:00:21;16.30;1.00
3005;DHT22;1512;51.486;6.610;2023-05-23T01:04:31;16.20;1.00
3005;DHT22;1512;51.486;6.610;2023-05-23T01:08:42;16.20;1.00
3005;DHT22;1512;51.486;6.610;2023-05-23T01:17:25;16.30;1.00
3005;DHT22;1512;51.486;6.610;2023-05-23T01:21:23;16.40;1.00
3005;DHT22;1512;51.486;6.610;2023-05-23T01:26:00;16.20;1.00
3005;DHT22;1512;51.486;6.610;2023-05-23T01:34:36;16.30;1.00
3005;DHT22;1512;51.486;6.610;2023-05-23T01:38:45;16.20;1.00
3005;DHT22;1512;51.486;6.610;2023-05-23T01:42:56;16.20;1.00
3005;DHT22;1512;51.486;6.610;2023-05-23T01:47:07;16.20;1.00
3005;DHT22;1512;51.486;6.610;2023-05-23T01:51:17;16.20;1.00
3005;DHT22;1512;51.486;6.610;2023-05-23T01:55:26;16.20;1.00
3005;DHT22;1512;51.486;6.610;2023-05-23T01:59:35;16.20;1.00
3005;DHT22;1512;51.486;6.610;2023-05-23T02:03:45;16.10;1.00
3005;DHT22;1512;51.486;6.610;2023-05-23T02:07:53;16.20;1.00
3005;DHT22;1512;51.486;6.610;2023-05-23T02:12:02;16.20;1.00
3005;DHT22;1512;51.486;6.610;2023-05-23T02:16:11;16.20;1.00
3005;DHT22;1512;51.486;6.610;2023-05-23T02:20:20;16.20;1.00
3005;DHT22;1512;51.486;6.610;2023-05-23T02:24:29;16.10;1.00
3005;DHT22;1512;51.486;6.610;2023-05-23T02:28:37;16.10;1.00
3005;DHT22;1512;51.486;6.610;2023-05-23T02:32:46;16.20;1.00
3005;DHT22;1512;51.486;6.610;2023-05-23T02:36:55;16.10;1.00
3005;DHT22;1512;51.486;6.610;2023-05-23T02:41:04;16.10;1.00
3005;DHT22;1512;51.486;6.610;2023-05-23T02:45:13;16.00;1.00
3005;DHT22;1512;51.486;6.610;2023-05-23T02:49:21;16.00;1.00
3005;DHT22;1512;51.486;6.610;2023-05-23T02:53:30;16.00;1.00
3005;DHT22;1512;51.486;6.610;2023-05-23T02:57:39;16.00;1.00
3005;DHT22;1512;51.486;6.610;2023-05-23T03:01:48;16.00;1.00
3005;DHT22;1512;51.486;6.610;2023-05-23T03:05:57;16.00;1.00
3005;DHT22;1512;51.486;6.610;2023-05-23T03:10:06;15.90;1.00
3005;DHT22;1512;51.486;6.610;2023-05-23T03:14:15;15.90;1.00
3005;DHT22;1512;51.486;6.610;2023-05-23T03:18:24;16.00;1.00
3005;DHT22;1512;51.486;6.610;2023-05-23T03:22:34;15.80;1.00
3005;DHT22;1512;51.486;6.610;2023-05-23T03:26:43;15.60;1.00
3005;DHT22;1512;51.486;6.610;2023-05-23T03:30:52;15.70;1.00
3005;DHT22;1512;51.486;6.610;2023-05-23T03:35:01;15.70;1.00
3005;DHT22;1512;51.486;6.610;2023-05-23T03:39:10;15.70;1.00
3005;DHT22;1512;51.486;6.610;2023-05-23T03:43:19;15.70;1.00
3005;DHT22;1512;51.486;6.610;2023-05-23T03:47:28;15.70;1.00
3005;DHT22;1512;51.486;6.610;2023-05-23T03:51:37;15.70;1.00
3005;DHT22;1512;51.486;6.610;2023-05-23T03:55:46;15.70;1.00
3005;DHT22;1512;51.486;6.610;2023-05-23T03:59:55;15.60;9.60
3005;DHT22;1512;51.486;6.610;2023-05-23T04:04:04;15.60;59.50
3005;DHT22;1512;51.486;6.610;2023-05-23T04:08:13;15.60;76.40
3005;DHT22;1512;51.486;6.610;2023-05-23T04:12:23;15.50;99.90
3005;DHT22;1512;51.486;6.610;2023-05-23T04:16:34;15.60;58.70
3005;DHT22;1512;51.486;6.610;2023-05-23T04:20:43;15.60;33.50
3005;DHT22;1512;51.486;6.610;2023-05-23T04:24:52;15.60;40.00
3005;DHT22;1512;51.486;6.610;2023-05-23T04:29:02;15.50;99.90
3005;DHT22;1512;51.486;6.610;2023-05-23T04:33:13;15.40;99.90
3005;DHT22;1512;51.486;6.610;2023-05-23T04:37:21;15.30;99.90
3005;DHT22;1512;51.486;6.610;2023-05-23T04:41:32;15.30;1.00
3005;DHT22;1512;51.486;6.610;2023-05-23T04:45:41;15.40;99.90
3005;DHT22;1512;51.486;6.610;2023-05-23T04:49:50;15.40;99.90
3005;DHT22;1512;51.486;6.610;2023-05-23T04:54:01;15.40;99.90
3005;DHT22;1512;51.486;6.610;2023-05-23T04:58:10;15.30;99.90
3005;DHT22;1512;51.486;6.610;2023-05-23T05:02:19;15.40;99.90
3005;DHT22;1512;51.486;6.610;2023-05-23T05:06:28;15.40;99.90
3005;DHT22;1512;51.486;6.610;2023-05-23T05:10:38;15.30;99.90
3005;DHT22;1512;51.486;6.610;2023-05-23T05:14:48;15.20;99.90
3005;DHT22;1512;51.486;6.610;2023-05-23T05:18:57;15.40;99.90
3005;DHT22;1512;51.486;6.610;2023-05-23T05:23:06;15.40;99.90
3005;DHT22;1512;51.486;6.610;2023-05-23T05:27:16;15.30;38.40
3005;DHT22;1512;51.486;6.610;2023-05-23T05:31:25;15.40;99.90
3005;DHT22;1512;51.486;6.610;2023-05-23T05:35:34;15.40;1.00
3005;DHT22;1512;51.486;6.610;2023-05-23T05:39:45;15.30;1.00
3005;DHT22;1512;51.486;6.610;2023-05-23T05:43:53;15.30;1.00
3005;DHT22;1512;51.486;6.610;2023-05-23T05:48:02;15.40;1.00
3005;DHT22;1512;51.486;6.610;2023-05-23T05:52:11;15.40;1.00
3005;DHT22;1512;51.486;6.610;2023-05-23T05:56:20;15.40;1.00
3005;DHT22;1512;51.486;6.610;2023-05-23T06:00:29;15.30;1.00
3005;DHT22;1512;51.486;6.610;2023-05-23T06:04:38;15.40;1.00
3005;DHT22;1512;51.486;6.610;2023-05-23T06:08:47;15.50;1.00
3005;DHT22;1512;51.486;6.610;2023-05-23T06:12:56;15.40;1.00
3005;DHT22;1512;51.486;6.610;2023-05-23T06:17:05;15.30;1.00
3005;DHT22;1512;51.486;6.610;2023-05-23T06:21:14;15.40;1.00
3005;DHT22;1512;51.486;6.610;2023-05-23T06:25:23;15.40;1.00
3005;DHT22;1512;51.486;6.610;2023-05-23T06:29:32;15.50;1.00
3005;DHT22;1512;51.486;6.610;2023-05-23T06:33:43;15.50;1.00
3005;DHT22;1512;51.486;6.610;2023-05-23T06:37:52;15.50;1.00
3005;DHT22;1512;51.486;6.610;2023-05-23T06:42:01;15.60;1.00
3005;DHT22;1512;51.486;6.610;2023-05-23T06:46:11;15.60;1.00
3005;DHT22;1512;51.486;6.610;2023-05-23T06:50:19;15.70;1.00
3005;DHT22;1512;51.486;6.610;2023-05-23T06:54:28;15.80;1.00
3005;DHT22;1512;51.486;6.610;2023-05-23T06:58:37;15.70;1.00
3005;DHT22;1512;51.486;6.610;2023-05-23T07:02:46;15.60;1.00
3005;DHT22;1512;51.486;6.610;2023-05-23T07:06:55;15.60;1.00
3005;DHT22;1512;51.486;6.610;2023-05-23T07:11:04;15.60;1.00
3005;DHT22;1512;51.486;6.610;2023-05-23T07:15:13;15.60;1.00
3005;DHT22;1512;51.486;6.610;2023-05-23T07:19:22;15.50;1.00
3005;DHT22;1512;51.486;6.610;2023-05-23T07:23:32;15.40;1.00
3005;DHT22;1512;51.486;6.610;2023-05-23T07:27:41;15.60;1.00
3005;DHT22;1512;51.486;6.610;2023-05-23T07:31:50;15.40;1.00
3005;DHT22;1512;51.486;6.610;2023-05-23T07:36:00;15.10;1.00
3005;DHT22;1512;51.486;6.610;2023-05-23T07:40:09;15.10;1.00
3005;DHT22;1512;51.486;6.610;2023-05-23T07:44:18;15.10;1.00
3005;DHT22;1512;51.486;6.610;2023-05-23T07:48:28;15.20;1.00
3005;DHT22;1512;51.486;6.610;2023-05-23T07:52:39;15.10;1.00
3005;DHT22;1512;51.486;6.610;2023-05-23T07:56:48;15.00;1.00
3005;DHT22;1512;51.486;6.610;2023-05-23T08:00:56;15.00;1.00
3005;DHT22;1512;51.486;6.610;2023-05-23T08:09:37;14.80;1.00
3005;DHT22;1512;51.486;6.610;2023-05-23T08:13:47;14.60;1.00
3005;DHT22;1512;51.486;6.610;2023-05-23T08:17:55;14.50;1.00
3005;DHT22;1512;51.486;6.610;2023-05-23T08:22:05;14.50;1.00
3005;DHT22;1512;51.486;6.610;2023-05-23T08:26:14;14.60;1.00
3005;DHT22;1512;51.486;6.610;2023-05-23T08:30:23;14.60;1.00
3005;DHT22;1512;51.486;6.610;2023-05-23T08:34:32;14.60;1.00
3005;DHT22;1512;51.486;6.610;2023-05-23T08:38:40;14.70;1.00
3005;DHT22;1512;51.486;6.610;2023-05-23T08:42:50;14.60;1.00
3005;DHT22;1512;51.486;6.610;2023-05-23T08:47:01;14.60;1.00
3005;DHT22;1512;51.486;6.610;2023-05-23T08:51:13;14.30;1.00
3005;DHT22;1512;51.486;6.610;2023-05-23T08:55:27;14.30;1.00
3005;DHT22;1512;51.486;6.610;2023-05-23T08:59:36;14.30;1.00
3005;DHT22;1512;51.486;6.610;2023-05-23T09:03:46;14.40;1.00
3005;DHT22;1512;51.486;6.610;2023-05-23T09:07:58;14.20;1.00
3005;DHT22;1512;51.486;6.610;2023-05-23T09:12:06;14.20;1.00
3005;DHT22;1512;51.486;6.610;2023-05-23T09:16:18;14.30;1.00
3005;DHT22;1512;51.486;6.610;2023-05-23T09:20:27;14.40;1.00
3005;DHT22;1512;51.486;6.610;2023-05-23T09:24:37;14.60;1.00
3005;DHT22;1512;51.486;6.610;2023-05-23T09:28:45;14.60;1.00
3005;DHT22;1512;51.486;6.610;2023-05-23T09:32:58;14.70;1.00
3005;DHT22;1512;51.486;6.610;2023-05-23T09:37:10;14.70;1.00
3005;DHT22;1512;51.486;6.610;2023-05-23T09:41:20;14.50;1.00
3005;DHT22;1512;51.486;6.610;2023-05-23T09:45:30;14.70;1.00
3005;DHT22;1512;51.486;6.610;2023-05-23T09:49:39;14.80;1.00
3005;DHT22;1512;51.486;6.610;2023-05-23T09:53:48;15.10;1.00
3005;DHT22;1512;51.486;6.610;2023-05-23T09:57:58;15.40;1.00
3005;DHT22;1512;51.486;6.610;2023-05-23T10:02:15;15.80;1.00
3005;DHT22;1512;51.486;6.610;2023-05-23T10:06:29;15.90;1.00
3005;DHT22;1512;51.486;6.610;2023-05-23T10:15:03;15.80;1.00
3005;DHT22;1512;51.486;6.610;2023-05-23T10:19:43;15.70;1.00
3005;DHT22;1512;51.486;6.610;2023-05-23T10:23:45;15.90;1.00
3005;DHT22;1512;51.486;6.610;2023-05-23T10:27:57;16.00;1.00
3005;DHT22;1512;51.486;6.610;2023-05-23T10:32:08;16.00;1.00
3005;DHT22;1512;51.486;6.610;2023-05-23T10:36:21;16.20;1.00
3005;DHT22;1512;51.486;6.610;2023-05-23T10:40:52;16.30;1.00
3005;DHT22;1512;51.486;6.610;2023-05-23T10:45:16;16.30;99.90
3005;DHT22;1512;51.486;6.610;2023-05-23T10:49:46;16.40;99.90
3005;DHT22;1512;51.486;6.610;2023-05-23T10:53:55;16.50;99.90
3005;DHT22;1512;51.486;6.610;2023-05-23T10:58:19;16.30;99.90
3005;DHT22;1512;51.486;6.610;2023-05-23T11:02:29;16.30;1.00
3005;DHT22;1512;51.486;6.610;2023-05-23T11:06:40;16.30;99.90
3005;DHT22;1512;51.486;6.610;2023-05-23T11:11:04;16.20;99.90
3005;DHT22;1512;51.486;6.610;2023-05-23T11:19:28;16.20;99.90
3005;DHT22;1512;51.486;6.610;2023-05-23T11:23:41;16.30;99.90
3005;DHT22;1512;51.486;6.610;2023-05-23T11:27:51;16.60;99.90
3005;DHT22;1512;51.486;6.610;2023-05-23T11:32:07;16.80;99.90
3005;DHT22;1512;51.486;6.610;2023-05-23T11:36:10;17.10;99.90
3005;DHT22;1512;51.486;6.610;2023-05-23T11:40:30;17.50;99.90
3005;DHT22;1512;51.486;6.610;2023-05-23T11:44:39;17.50;99.90
3005;DHT22;1512;51.486;6.610;2023-05-23T11:49:10;17.50;99.90
3005;DHT22;1512;51.486;6.610;2023-05-23T11:53:21;17.50;99.90
3005;DHT22;1512;51.486;6.610;2023-05-23T11:57:32;17.50;99.90
3005;DHT22;1512;51.486;6.610;2023-05-23T12:01:40;17.50;99.90
3005;DHT22;1512;51.486;6.610;2023-05-23T12:05:50;17.60;99.90
3005;DHT22;1512;51.486;6.610;2023-05-23T12:09:59;18.00;99.90
3005;DHT22;1512;51.486;6.610;2023-05-23T12:14:12;17.80;99.90
3005;DHT22;1512;51.486;6.610;2023-05-23T12:18:19;17.90;99.90
3005;DHT22;1512;51.486;6.610;2023-05-23T12:22:28;18.10;99.90
3005;DHT22;1512;51.486;6.610;2023-05-23T12:26:52;18.40;99.90
3005;DHT22;1512;51.486;6.610;2023-05-23T12:35:24;18.60;99.90
3005;DHT22;1512;51.486;6.610;2023-05-23T12:39:35;18.90;99.90
3005;DHT22;1512;51.486;6.610;2023-05-23T12:43:50;18.90;99.90
3005;DHT22;1512;51.486;6.610;2023-05-23T12:48:01;18.80;99.90
3005;DHT22;1512;51.486;6.610;2023-05-23T12:52:11;18.60;99.90
3005;DHT22;1512;51.486;6.610;2023-05-23T12:56:20;18.80;99.90
3005;DHT22;1512;51.486;6.610;2023-05-23T13:00:29;19.40;99.90
3005;DHT22;1512;51.486;6.610;2023-05-23T13:04:39;19.20;99.90
3005;DHT22;1512;51.486;6.610;2023-05-23T13:08:52;19.00;99.90
3005;DHT22;1512;51.486;6.610;2023-05-23T13:13:01;18.70;99.90
3005;DHT22;1512;51.486;6.610;2023-05-23T13:17:10;18.60;99.90
3005;DHT22;1512;51.486;6.610;2023-05-23T13:21:19;18.60;99.90
3005;DHT22;1512;51.486;6.610;2023-05-23T13:25:29;19.30;99.90
3005;DHT22;1512;51.486;6.610;2023-05-23T13:29:37;19.40;99.90
3005;DHT22;1512;51.486;6.610;2023-05-23T13:33:46;19.20;99.90
3005;DHT22;1512;51.486;6.610;2023-05-23T13:37:55;19.60;99.90
3005;DHT22;1512;51.486;6.610;2023-05-23T13:42:04;19.50;99.90
3005;DHT22;1512;51.486;6.610;2023-05-23T13:46:14;19.00;99.90
3005;DHT22;1512;51.486;6.610;2023-05-23T13:50:23;18.70;99.90
3005;DHT22;1512;51.486;6.610;2023-05-23T13:54:32;18.80;99.90
3005;DHT22;1512;51.486;6.610;2023-05-23T13:58:41;19.10;99.90
3005;DHT22;1512;51.486;6.610;2023-05-23T14:02:51;19.40;99.90
3005;DHT22;1512;51.486;6.610;2023-05-23T14:07:00;19.40;99.90
3005;DHT22;1512;51.486;6.610;2023-05-23T14:11:09;19.40;99.90
3005;DHT22;1512;51.486;6.610;2023-05-23T14:15:18;19.60;99.90
3005;DHT22;1512;51.486;6.610;2023-05-23T14:19:27;19.80;99.90
3005;DHT22;1512;51.486;6.610;2023-05-23T14:23:35;19.90;99.90
3005;DHT22;1512;51.486;6.610;2023-05-23T14:27:44;20.20;99.90
3005;DHT22;1512;51.486;6.610;2023-05-23T14:31:55;20.30;99.90
3005;DHT22;1512;51.486;6.610;2023-05-23T14:36:05;19.90;99.90
3005;DHT22;1512;51.486;6.610;2023-05-23T14:40:14;19.90;99.90
3005;DHT22;1512;51.486;6.610;2023-05-23T14:44:23;19.80;99.90
3005;DHT22;1512;51.486;6.610;2023-05-23T14:48:32;20.00;99.90
3005;DHT22;1512;51.486;6.610;2023-05-23T14:52:41;19.80;99.90
3005;DHT22;1512;51.486;6.610;2023-05-23T14:56:49;19.60;99.90
3005;DHT22;1512;51.486;6.610;2023-05-23T15:01:00;19.30;99.90
3005;DHT22;1512;51.486;6.610;2023-05-23T15:05:09;18.80;99.90
3005;DHT22;1512;51.486;6.610;2023-05-23T15:09:22;18.60;99.90
3005;DHT22;1512;51.486;6.610;2023-05-23T15:13:31;18.20;99.90
3005;DHT22;1512;51.486;6.610;2023-05-23T15:17:39;18.20;99.90
3005;DHT22;1512;51.486;6.610;2023-05-23T15:21:48;18.60;99.90
3005;DHT22;1512;51.486;6.610;2023-05-23T15:25:58;18.80;99.90
3005;DHT22;1512;51.486;6.610;2023-05-23T15:30:09;18.70;99.90
3005;DHT22;1512;51.486;6.610;2023-05-23T15:34:22;18.30;99.90
3005;DHT22;1512;51.486;6.610;2023-05-23T15:38:31;18.10;99.90
3005;DHT22;1512;51.486;6.610;2023-05-23T15:42:39;18.10;99.90
3005;DHT22;1512;51.486;6.610;2023-05-23T15:46:50;18.10;99.90
3005;DHT22;1512;51.486;6.610;2023-05-23T15:51:02;18.30;99.90
3005;DHT22;1512;51.486;6.610;2023-05-23T15:55:11;18.40;99.90
3005;DHT22;1512;51.486;6.610;2023-05-23T15:59:20;18.50;99.90
3005;DHT22;1512;51.486;6.610;2023-05-23T16:03:28;18.60;99.90
3005;DHT22;1512;51.486;6.610;2023-05-23T16:07:37;18.70;99.90
3005;DHT22;1512;51.486;6.610;2023-05-23T16:11:46;18.80;99.90
3005;DHT22;1512;51.486;6.610;2023-05-23T16:15:54;18.50;99.90
3005;DHT22;1512;51.486;6.610;2023-05-23T16:20:04;18.50;99.90
3005;DHT22;1512;51.486;6.610;2023-05-23T16:24:13;18.50;99.90
3005;DHT22;1512;51.486;6.610;2023-05-23T16:28:25;18.30;99.90
3005;DHT22;1512;51.486;6.610;2023-05-23T16:32:33;18.20;99.90
3005;DHT22;1512;51.486;6.610;2023-05-23T16:36:42;18.10;99.90
3005;DHT22;1512;51.486;6.610;2023-05-23T16:40:51;18.10;99.90
3005;DHT22;1512;51.486;6.610;2023-05-23T16:45:00;18.10;99.90
3005;DHT22;1512;51.486;6.610;2023-05-23T16:49:08;18.10;99.90
3005;DHT22;1512;51.486;6.610;2023-05-23T16:53:18;18.10;99.90
3005;DHT22;1512;51.486;6.610;2023-05-23T16:57:27;17.80;99.90
3005;DHT22;1512;51.486;6.610;2023-05-23T17:01:35;17.70;99.90
3005;DHT22;1512;51.486;6.610;2023-05-23T17:05:44;17.30;99.90
3005;DHT22;1512;51.486;6.610;2023-05-23T17:09:53;17.20;99.90
3005;DHT22;1512;51.486;6.610;2023-05-23T17:14:02;17.40;99.90
3005;DHT22;1512;51.486;6.610;2023-05-23T17:18:10;17.20;99.90
3005;DHT22;1512;51.486;6.610;2023-05-23T17:22:19;17.20;99.90
3005;DHT22;1512;51.486;6.610;2023-05-23T17:26:28;17.10;99.90
3005;DHT22;1512;51.486;6.610;2023-05-23T17:30:37;17.10;99.90
3005;DHT22;1512;51.486;6.610;2023-05-23T17:34:45;16.90;99.90
3005;DHT22;1512;51.486;6.610;2023-05-23T17:38:54;17.00;99.90
3005;DHT22;1512;51.486;6.610;2023-05-23T17:43:03;17.00;99.90
3005;DHT22;1512;51.486;6.610;2023-05-23T17:47:12;17.00;99.90
3005;DHT22;1512;51.486;6.610;2023-05-23T17:51:20;16.80;99.90
3005;DHT22;1512;51.486;6.610;2023-05-23T17:59:59;16.50;99.90
3005;DHT22;1512;51.486;6.610;2023-05-23T18:04:08;16.40;99.90
3005;DHT22;1512;51.486;6.610;2023-05-23T18:08:16;16.20;99.90
3005;DHT22;1512;51.486;6.610;2023-05-23T18:12:27;16.00;99.90
3005;DHT22;1512;51.486;6.610;2023-05-23T18:16:36;16.00;99.90
3005;DHT22;1512;51.486;6.610;2023-05-23T18:21:04;15.80;99.90
3005;DHT22;1512;51.486;6.610;2023-05-23T18:25:13;15.60;99.90
3005;DHT22;1512;51.486;6.610;2023-05-23T18:29:24;15.60;99.90
3005;DHT22;1512;51.486;6.610;2023-05-23T18:33:32;15.50;99.90
3005;DHT22;1512;51.486;6.610;2023-05-23T18:37:41;15.60;99.90
3005;DHT22;1512;51.486;6.610;2023-05-23T18:41:50;15.40;99.90
3005;DHT22;1512;51.486;6.610;2023-05-23T18:45:58;15.20;99.90
3005;DHT22;1512;51.486;6.610;2023-05-23T18:50:07;15.30;99.90
3005;DHT22;1512;51.486;6.610;2023-05-23T18:54:17;15.10;99.90
3005;DHT22;1512;51.486;6.610;2023-05-23T18:58:26;15.00;99.90
3005;DHT22;1512;51.486;6.610;2023-05-23T19:02:34;14.90;99.90
3005;DHT22;1512;51.486;6.610;2023-05-23T19:06:44;14.90;99.90
3005;DHT22;1512;51.486;6.610;2023-05-23T19:10:53;14.80;99.90
3005;DHT22;1512;51.486;6.610;2023-05-23T19:15:02;14.80;99.90
3005;DHT22;1512;51.486;6.610;2023-05-23T19:19:11;14.50;99.90
3005;DHT22;1512;51.486;6.610;2023-05-23T19:23:21;14.50;99.90
3005;DHT22;1512;51.486;6.610;2023-05-23T19:27:29;14.50;99.90
3005;DHT22;1512;51.486;6.610;2023-05-23T19:31:38;14.40;99.90
3005;DHT22;1512;51.486;6.610;2023-05-23T19:35:47;14.40;99.90
3005;DHT22;1512;51.486;6.610;2023-05-23T19:39:56;14.30;99.90
3005;DHT22;1512;51.486;6.610;2023-05-23T19:44:05;14.30;99.90
3005;DHT22;1512;51.486;6.610;2023-05-23T19:48:14;14.20;99.90
3005;DHT22;1512;51.486;6.610;2023-05-23T19:52:23;14.10;99.90
3005;DHT22;1512;51.486;6.610;2023-05-23T19:56:32;13.90;99.90
3005;DHT22;1512;51.486;6.610;2023-05-23T20:00:42;13.70;99.90
3005;DHT22;1512;51.486;6.610;2023-05-23T20:04:51;13.70;99.90
3005;DHT22;1512;51.486;6.610;2023-05-23T20:09:00;13.70;99.90
3005;DHT22;1512;51.486;6.610;2023-05-23T20:13:08;13.60;99.90
3005;DHT22;1512;51.486;6.610;2023-05-23T20:17:22;13.60;99.90
3005;DHT22;1512;51.486;6.610;2023-05-23T20:21:30;13.40;99.90
3005;DHT22;1512;51.486;6.610;2023-05-23T20:25:39;13.40;99.90
3005;DHT22;1512;51.486;6.610;2023-05-23T20:29:50;13.20;99.90
3005;DHT22;1512;51.486;6.610;2023-05-23T20:33:58;13.10;99.90
3005;DHT22;1512;51.486;6.610;2023-05-23T20:38:07;13.00;99.90
3005;DHT22;1512;51.486;6.610;2023-05-23T20:42:16;12.90;99.90
3005;DHT22;1512;51.486;6.610;2023-05-23T20:46:24;12.90;99.90
3005;DHT22;1512;51.486;6.610;2023-05-23T20:50:34;12.90;99.90
3005;DHT22;1512;51.486;6.610;2023-05-23T20:54:45;12.90;99.90
3005;DHT22;1512;51.486;6.610;2023-05-23T20:58:54;12.70;99.90
3005;DHT22;1512;51.486;6.610;2023-05-23T21:03:04;12.70;99.90
3005;DHT22;1512;51.486;6.610;2023-05-23T21:07:13;12.60;99.90
3005;DHT22;1512;51.486;6.610;2023-05-23T21:11:22;12.50;99.90
3005;DHT22;1512;51.486;6.610;2023-05-23T21:15:30;12.50;99.90
3005;DHT22;1512;51.486;6.610;2023-05-23T21:19:39;12.50;99.90
3005;DHT22;1512;51.486;6.610;2023-05-23T21:23:48;12.40;99.90
3005;DHT22;1512;51.486;6.610;2023-05-23T21:27:57;12.30;99.90
3005;DHT22;1512;51.486;6.610;2023-05-23T21:32:05;12.30;99.90
3005;DHT22;1512;51.486;6.610;2023-05-23T21:36:14;12.20;99.90
3005;DHT22;1512;51.486;6.610;2023-05-23T21:40:23;12.20;99.90
3005;DHT22;1512;51.486;6.610;2023-05-23T21:44:33;12.10;99.90
3005;DHT22;1512;51.486;6.610;2023-05-23T21:48:42;12.00;99.90
3005;DHT22;1512;51.486;6.610;2023-05-23T21:52:51;12.00;99.90
3005;DHT22;1512;51.486;6.610;2023-05-23T21:56:59;11.90;99.90
3005;DHT22;1512;51.486;6.610;2023-05-23T22:01:32;11.90;99.90
3005;DHT22;1512;51.486;6.610;2023-05-23T22:05:41;11.90;99.90
3005;DHT22;1512;51.486;6.610;2023-05-23T22:09:50;11.90;99.90
3005;DHT22;1512;51.486;6.610;2023-05-23T22:14:00;12.00;99.90
3005;DHT22;1512;51.486;6.610;2023-05-23T22:18:09;11.90;99.90
3005;DHT22;1512;51.486;6.610;2023-05-23T22:22:19;11.90;99.90
3005;DHT22;1512;51.486;6.610;2023-05-23T22:26:28;11.90;99.90
3005;DHT22;1512;51.486;6.610;2023-05-23T22:30:37;11.80;99.90
3005;DHT22;1512;51.486;6.610;2023-05-23T22:34:46;11.80;99.90
3005;DHT22;1512;51.486;6.610;2023-05-23T22:38:55;11.70;99.90
3005;DHT22;1512;51.486;6.610;2023-05-23T22:43:04;11.50;99.90
3005;DHT22;1512;51.486;6.610;2023-05-23T22:47:13;11.50;99.90
3005;DHT22;1512;51.486;6.610;2023-05-23T22:51:22;11.50;99.90
3005;DHT22;1512;51.486;6.610;2023-05-23T22:55:31;11.30;99.90
3005;DHT22;1512;51.486;6.610;2023-05-23T22:59:40;11.30;99.90
3005;DHT22;1512;51.486;6.610;2023-05-23T23:03:49;11.40;99.90
3005;DHT22;1512;51.486;6.610;2023-05-23T23:07:58;11.40;99.90
3005;DHT22;1512;51.486;6.610;2023-05-23T23:12:06;11.30;99.90
3005;DHT22;1512;51.486;6.610;2023-05-23T23:16:15;11.30;99.90
3005;DHT22;1512;51.486;6.610;2023-05-23T23:20:25;11.30;99.90
3005;DHT22;1512;51.486;6.610;2023-05-23T23:24:34;11.30;99.90
3005;DHT22;1512;51.486;6.610;2023-05-23T23:28:43;11.30;99.90
3005;DHT22;1512;51.486;6.610;2023-05-23T23:32:52;11.20;99.90
3005;DHT22;1512;51.486;6.610;2023-05-23T23:37:01;11.20;99.90
3005;DHT22;1512;51.486;6.610;2023-05-23T23:41:10;11.20;99.90
3005;DHT22;1512;51.486;6.610;2023-05-23T23:45:19;11.20;99.90
3005;DHT22;1512;51.486;6.610;2023-05-23T23:49:27;11.00;99.90
3005;DHT22;1512;51.486;6.610;2023-05-23T23:53:36;11.00;99.90
3005;DHT22;1512;51.486;6.610;2023-05-23T23:57:45;10.80;99.90
